createdAt,value
2022-10-11T00:01:17.996Z,101996.97
2022-10-11T00:03:44.593Z,101994.69
2022-10-11T00:06:11.123Z,102006.69
2022-10-11T00:08:37.670Z,101997.97
2022-10-11T00:11:06.771Z,101999.56
2022-10-11T00:13:33.465Z,102002.22
2022-10-11T00:16:00.014Z,102004.28
2022-10-11T00:18:26.805Z,102004.75
2022-10-11T00:21:06.876Z,102012.56
2022-10-11T00:23:33.996Z,102002.22
2022-10-11T00:26:02.397Z,102010.63
2022-10-11T00:28:29.918Z,102001.44
2022-10-11T00:30:56.970Z,102014.63
2022-10-11T00:33:23.386Z,102010.28
2022-10-11T00:35:50.011Z,102017.31
2022-10-11T00:38:16.876Z,102014.25
2022-10-11T00:40:44.067Z,102016.50
2022-10-11T00:43:23.444Z,102032.88
2022-10-11T00:46:22.593Z,102025.63
2022-10-11T00:48:53.798Z,102024.03
2022-10-11T00:51:37.347Z,102031.88
2022-10-11T00:54:04.888Z,102021.53
2022-10-11T00:56:35.239Z,102032.38
2022-10-11T00:59:06.046Z,102024.44
2022-10-11T01:01:32.774Z,102034.31
2022-10-11T01:03:59.523Z,102026.84
2022-10-11T01:06:26.045Z,102030.97
2022-10-11T01:08:53.078Z,102033.72
2022-10-11T01:11:22.944Z,102046.81
2022-10-11T01:14:10.842Z,102040.41
2022-10-11T01:17:15.746Z,102045.47
2022-10-11T01:19:45.543Z,102040.41
2022-10-11T01:22:33.378Z,102044.22
2022-10-11T01:25:05.417Z,102046.44
2022-10-11T01:27:53.729Z,102047.63
2022-10-11T01:30:31.721Z,102048.91
2022-10-11T01:33:16.565Z,102046.06
2022-10-11T01:35:48.850Z,102059.50
2022-10-11T01:38:30.590Z,102054.03
2022-10-11T01:41:03.217Z,102054.03
2022-10-11T01:43:30.458Z,102054.13
2022-10-11T01:45:58.879Z,102053.44
2022-10-11T01:48:25.410Z,102055.16
2022-10-11T01:51:03.265Z,102057.44
2022-10-11T01:54:07.129Z,102054.94
2022-10-11T01:56:51.997Z,102044.81
2022-10-11T01:59:49.602Z,102044.63
2022-10-11T02:02:53.590Z,102052.19
2022-10-11T02:05:31.267Z,102052.53
2022-10-11T02:08:23.976Z,102059.69
2022-10-11T02:11:15.483Z,102046.34
2022-10-11T02:13:54.330Z,102053.56
2022-10-11T02:16:26.929Z,102058.03
2022-10-11T02:18:56.679Z,102059.28
2022-10-11T02:21:23.763Z,102062.16
2022-10-11T02:23:55.196Z,102059.84
2022-10-11T02:26:24.866Z,102060.09
2022-10-11T02:28:56.686Z,102055.56
2022-10-11T02:31:25.046Z,102068.88
2022-10-11T02:34:14.734Z,102064.06
2022-10-11T02:37:04.015Z,102062.91
2022-10-11T02:39:49.070Z,102070.88
2022-10-11T02:42:26.413Z,102069.38
2022-10-11T02:45:11.750Z,102067.19
2022-10-11T02:47:38.441Z,102074.53
2022-10-11T02:50:05.430Z,102073.03
2022-10-11T02:52:31.843Z,102069.81
2022-10-11T02:54:58.277Z,102077.38
2022-10-11T02:57:24.707Z,102079.94
2022-10-11T02:59:51.115Z,102081.53
2022-10-11T03:02:17.541Z,102078.34
2022-10-11T03:04:44.073Z,102087.38
2022-10-11T03:07:10.495Z,102085.53
2022-10-11T03:09:36.935Z,102086.59
2022-10-11T03:12:03.542Z,102093.56
2022-10-11T03:14:30.009Z,102096.47
2022-10-11T03:17:00.734Z,102096.13
2022-10-11T03:19:38.676Z,102090.25
2022-10-11T03:22:05.170Z,102097.25
2022-10-11T03:24:31.583Z,102091.16
2022-10-11T03:26:58.039Z,102102.63
2022-10-11T03:29:24.478Z,102102.88
2022-10-11T03:31:50.932Z,102105.47
2022-10-11T03:34:17.347Z,102110.06
2022-10-11T03:36:43.786Z,102110.88
2022-10-11T03:39:10.183Z,102111.22
2022-10-11T03:41:36.574Z,102126.25
2022-10-11T03:44:03.593Z,102123.97
2022-10-11T03:46:30.109Z,102126.72
2022-10-11T03:48:56.494Z,102128.31
2022-10-11T03:51:22.871Z,102125.22
2022-10-11T03:53:49.269Z,102123.75
2022-10-11T03:56:16.350Z,102132.56
2022-10-11T03:58:43.040Z,102129.50
2022-10-11T04:01:09.606Z,102128.81
2022-10-11T04:03:36.115Z,102135.47
2022-10-11T04:06:03.055Z,102133.41
2022-10-11T04:08:29.814Z,102133.41
2022-10-11T04:10:56.248Z,102134.56
2022-10-11T04:13:22.657Z,102129.03
2022-10-11T04:15:49.079Z,102140.75
2022-10-11T04:18:15.569Z,102149.44
2022-10-11T04:20:42.706Z,102149.69
2022-10-11T04:23:09.222Z,102151.41
2022-10-11T04:25:38.385Z,102155.75
2022-10-11T04:28:05.182Z,102150.59
2022-10-11T04:30:31.580Z,102147.03
2022-10-11T04:32:58.029Z,102160.94
2022-10-11T04:35:24.446Z,102153.81
2022-10-11T04:37:50.856Z,102149.69
2022-10-11T04:40:17.391Z,102154.03
2022-10-11T04:42:43.884Z,102163.22
2022-10-11T04:45:10.527Z,102166.31
2022-10-11T04:47:36.982Z,102168.03
2022-10-11T04:50:03.981Z,102169.25
2022-10-11T04:52:30.425Z,102165.22
2022-10-11T04:54:56.870Z,102173.50
2022-10-11T04:57:23.290Z,102174.63
2022-10-11T04:59:50.384Z,102172.09
2022-10-11T05:02:17.221Z,102171.97
2022-10-11T05:04:43.734Z,102178.75
2022-10-11T05:07:10.160Z,102173.56
2022-10-11T05:09:36.564Z,102177.69
2022-10-11T05:12:03.483Z,102183.88
2022-10-11T05:14:30.041Z,102191.41
2022-10-11T05:16:56.774Z,102187.47
2022-10-11T05:19:23.364Z,102191.66
2022-10-11T05:21:49.798Z,102196.25
2022-10-11T05:24:16.267Z,102197.56
2022-10-11T05:26:42.920Z,102195.19
2022-10-11T05:29:09.300Z,102192.06
2022-10-11T05:31:35.734Z,102192.22
2022-10-11T05:34:02.141Z,102189.63
2022-10-11T05:36:28.592Z,102188.59
2022-10-11T05:38:55.042Z,102201.66
2022-10-11T05:41:21.507Z,102201.06
2022-10-11T05:43:47.978Z,102204.97
2022-10-11T05:46:14.514Z,102196.56
2022-10-11T05:48:41.120Z,102205.91
2022-10-11T05:51:09.959Z,102206.56
2022-10-11T05:53:37.852Z,102207.72
2022-10-11T05:56:05.056Z,102210.47
2022-10-11T05:58:31.844Z,102225.84
2022-10-11T06:00:58.306Z,102219.50
2022-10-11T06:03:24.813Z,102227.75
2022-10-11T06:05:55.757Z,102230.19
2022-10-11T06:08:23.312Z,102219.06
2022-10-11T06:10:49.710Z,102232.47
2022-10-11T06:13:16.185Z,102232.16
2022-10-11T06:15:42.588Z,102235.69
2022-10-11T06:18:09.050Z,102233.75
2022-10-11T06:20:36.551Z,102229.50
2022-10-11T06:23:02.953Z,102239.53
2022-10-11T06:25:29.351Z,102241.59
2022-10-11T06:27:55.996Z,102246.44
2022-10-11T06:30:22.576Z,102246.56
2022-10-11T06:32:48.973Z,102259.66
2022-10-11T06:35:15.417Z,102254.75
2022-10-11T06:37:41.855Z,102262.66
2022-10-11T06:40:08.743Z,102257.50
2022-10-11T06:42:35.150Z,102254.56
2022-10-11T06:45:01.624Z,102260.50
2022-10-11T06:47:28.026Z,102266.38
2022-10-11T06:49:54.436Z,102259.25
2022-10-11T06:52:20.845Z,102270.84
2022-10-11T06:54:47.302Z,102282.28
2022-10-11T06:57:13.863Z,102282.06
2022-10-11T06:59:40.275Z,102286.69
2022-10-11T07:02:06.924Z,102286.94
2022-10-11T07:04:33.922Z,102288.81
2022-10-11T07:07:00.703Z,102296.88
2022-10-11T07:09:27.141Z,102295.50
2022-10-11T07:11:53.790Z,102301.72
2022-10-11T07:14:20.220Z,102303.13
2022-10-11T07:16:46.681Z,102297.03
2022-10-11T07:19:13.140Z,102296.84
2022-10-11T07:21:39.595Z,102302.94
2022-10-11T07:24:06.410Z,102296.16
2022-10-11T07:26:38.890Z,102310.31
2022-10-11T07:29:07.088Z,102314.94
2022-10-11T07:31:33.592Z,102314.50
2022-10-11T07:34:00.043Z,102315.06
2022-10-11T07:36:26.470Z,102310.38
2022-10-11T07:38:52.955Z,102313.13
2022-10-11T07:41:19.872Z,102310.25
2022-10-11T07:43:47.888Z,102306.31
2022-10-11T07:46:14.605Z,102311.81
2022-10-11T07:48:41.634Z,102307.53
2022-10-11T07:51:14.381Z,102303.94
2022-10-11T07:53:46.199Z,102304.81
2022-10-11T07:56:14.671Z,102308.31
2022-10-11T07:58:42.111Z,102308.25
2022-10-11T08:01:10.454Z,102314.88
2022-10-11T08:03:38.195Z,102309.28
2022-10-11T08:06:07.912Z,102306.88
2022-10-11T08:08:35.508Z,102315.03
2022-10-11T08:11:02.068Z,102318.28
2022-10-11T08:13:28.597Z,102316.56
2022-10-11T08:15:55.216Z,102312.19
2022-10-11T08:18:21.891Z,102320.31
2022-10-11T08:20:48.980Z,102315.03
2022-10-11T08:23:17.176Z,102312.50
2022-10-11T08:25:47.043Z,102313.25
2022-10-11T08:28:17.952Z,102311.88
2022-10-11T08:30:49.748Z,102311.41
2022-10-11T08:33:17.794Z,102320.44
2022-10-11T08:35:44.597Z,102320.00
2022-10-11T08:38:11.645Z,102319.16
2022-10-11T08:40:38.778Z,102319.13
2022-10-11T08:43:13.987Z,102326.47
2022-10-11T08:45:50.449Z,102328.13
2022-10-11T08:48:40.701Z,102323.56
2022-10-11T08:51:27.689Z,102334.81
2022-10-11T08:54:12.789Z,102324.69
2022-10-11T08:56:41.813Z,102333.75
2022-10-11T08:59:11.199Z,102322.19
2022-10-11T09:01:44.693Z,102329.88
2022-10-11T09:04:14.245Z,102310.16
2022-10-11T09:07:03.949Z,102334.38
2022-10-11T09:10:06.455Z,102327.47
2022-10-11T09:13:02.258Z,102325.81
2022-10-11T09:15:41.987Z,102323.63
2022-10-11T09:18:20.437Z,102337.69
2022-10-11T09:21:16.122Z,102335.50
2022-10-11T09:24:11.666Z,102333.16
2022-10-11T09:26:43.451Z,102340.31
2022-10-11T09:29:20.505Z,102330.31
2022-10-11T09:31:54.658Z,102328.13
2022-10-11T09:34:25.325Z,102329.44
2022-10-11T09:37:09.730Z,102332.06
2022-10-11T09:39:50.915Z,102311.78
2022-10-11T09:42:17.387Z,102324.28
2022-10-11T09:44:50.555Z,102325.56
2022-10-11T09:47:24.077Z,102326.09
2022-10-11T09:49:56.603Z,102328.19
2022-10-11T09:52:24.092Z,102330.97
2022-10-11T09:54:54.994Z,102325.41
2022-10-11T09:57:21.587Z,102325.00
2022-10-11T10:00:21.976Z,102334.66
2022-10-11T10:02:53.861Z,102321.09
2022-10-11T10:05:25.400Z,102329.91
2022-10-11T10:07:59.749Z,102331.53
2022-10-11T10:10:43.228Z,102336.34
2022-10-11T10:13:23.244Z,102333.16
2022-10-11T10:15:59.123Z,102339.56
2022-10-11T10:18:38.835Z,102336.31
2022-10-11T10:21:11.331Z,102342.31
2022-10-11T10:23:37.864Z,102334.34
2022-10-11T10:26:20.544Z,102337.97
2022-10-11T10:29:09.945Z,102328.81
2022-10-11T10:31:55.370Z,102335.59
2022-10-11T10:34:37.545Z,102339.56
2022-10-11T10:37:08.518Z,102324.34
2022-10-11T10:39:37.576Z,102328.28
2022-10-11T10:42:10.000Z,102327.78
2022-10-11T10:44:36.449Z,102330.75
2022-10-11T10:47:28.821Z,102329.38
2022-10-11T10:50:06.891Z,102324.88
2022-10-11T10:52:47.709Z,102331.63
2022-10-11T10:55:44.961Z,102326.03
2022-10-11T10:58:45.201Z,102327.72
2022-10-11T11:01:17.809Z,102324.50
2022-10-11T11:03:51.867Z,102316.47
2022-10-11T11:06:34.147Z,102323.34
2022-10-11T11:09:17.709Z,102319.91
2022-10-11T11:11:44.102Z,102316.66
2022-10-11T11:14:18.328Z,102325.63
2022-10-11T11:17:12.790Z,102326.78
2022-10-11T11:19:59.786Z,102319.94
2022-10-11T11:22:44.978Z,102323.38
2022-10-11T11:25:49.976Z,102321.41
2022-10-11T11:28:22.537Z,102322.72
2022-10-11T11:30:52.055Z,102326.91
2022-10-11T11:33:49.704Z,102320.50
2022-10-11T11:36:39.420Z,102310.78
2022-10-11T11:39:10.814Z,102311.16
2022-10-11T11:41:44.009Z,102300.88
2022-10-11T11:44:28.350Z,102302.66
2022-10-11T11:47:08.887Z,102302.81
2022-10-11T11:52:23.136Z,102297.16
2022-10-11T11:55:16.936Z,102289.72
2022-10-11T11:57:57.741Z,102300.19
2022-10-11T12:00:30.916Z,102290.56
2022-10-11T12:03:02.374Z,102292.16
2022-10-11T12:05:32.960Z,102286.84
2022-10-11T12:08:24.083Z,102286.78
2022-10-11T12:10:50.469Z,102289.22
2022-10-11T12:13:21.594Z,102286.75
2022-10-11T12:16:05.933Z,102277.25
2022-10-11T12:18:38.218Z,102283.63
2022-10-11T12:21:18.903Z,102278.50
2022-10-11T12:23:52.385Z,102280.47
2022-10-11T12:26:28.006Z,102284.69
2022-10-11T12:29:20.774Z,102273.56
2022-10-11T12:31:58.820Z,102278.25
2022-10-11T12:34:44.922Z,102270.28
2022-10-11T12:37:17.520Z,102267.97
2022-10-11T12:39:54.499Z,102274.41
2022-10-11T12:42:32.928Z,102271.72
2022-10-11T12:45:12.101Z,102261.25
2022-10-11T12:48:05.872Z,102262.63
2022-10-11T12:51:24.861Z,102252.72
2022-10-11T12:54:27.330Z,102256.53
2022-10-11T12:57:12.179Z,102256.53
2022-10-11T12:59:45.236Z,102258.13
2022-10-11T13:02:29.097Z,102249.47
2022-10-11T13:05:08.142Z,102251.75
2022-10-11T13:07:35.627Z,102252.63
2022-10-11T13:10:04.965Z,102251.06
2022-10-11T13:12:40.353Z,102248.03
2022-10-11T13:15:12.978Z,102242.50
2022-10-11T13:17:40.790Z,102233.75
2022-10-11T13:20:07.171Z,102235.53
2022-10-11T13:22:35.178Z,102233.56
2022-10-11T13:25:05.559Z,102233.75
2022-10-11T13:27:32.326Z,102230.06
2022-10-11T13:30:02.296Z,102229.09
2022-10-11T13:32:31.125Z,102225.47
2022-10-11T13:35:02.311Z,102218.19
2022-10-11T13:37:30.605Z,102218.53
2022-10-11T13:39:57.631Z,102220.31
2022-10-11T13:42:30.033Z,102204.69
2022-10-11T13:44:57.260Z,102205.13
2022-10-11T13:47:29.212Z,102212.19
2022-10-11T13:50:07.863Z,102205.47
2022-10-11T13:52:34.771Z,102200.91
2022-10-11T13:55:04.176Z,102215.53
2022-10-11T13:57:45.963Z,102212.16
2022-10-11T14:00:15.188Z,102202.28
2022-10-11T14:02:49.995Z,102200.38
2022-10-11T14:05:29.536Z,102196.84
2022-10-11T14:07:58.556Z,102187.88
2022-10-11T14:10:25.889Z,102192.09
2022-10-11T14:13:29.552Z,102205.56
2022-10-11T14:16:09.379Z,102202.81
2022-10-11T14:18:41.589Z,102189.69
2022-10-11T14:21:20.342Z,102193.75
2022-10-11T14:23:50.441Z,102197.38
2022-10-11T14:26:19.048Z,102195.38
2022-10-11T14:28:49.126Z,102198.09
2022-10-11T14:31:15.638Z,102191.13
2022-10-11T14:33:42.163Z,102195.06
2022-10-11T14:36:08.894Z,102185.25
2022-10-11T14:38:35.553Z,102191.94
2022-10-11T14:41:01.969Z,102188.28
2022-10-11T14:43:28.385Z,102190.72
2022-10-11T14:45:54.828Z,102196.53
2022-10-11T14:48:43.030Z,102197.47
2022-10-11T14:51:12.098Z,102194.03
2022-10-11T14:53:41.994Z,102191.38
2022-10-11T14:56:08.826Z,102193.97
2022-10-11T14:58:35.388Z,102198.09
2022-10-11T15:01:01.806Z,102188.06
2022-10-11T15:03:28.258Z,102189.59
2022-10-11T15:05:54.827Z,102191.19
2022-10-11T15:08:21.284Z,102191.75
2022-10-11T15:10:47.755Z,102181.44
2022-10-11T15:13:14.295Z,102188.09
2022-10-11T15:15:41.527Z,102187.84
2022-10-11T15:18:12.614Z,102180.19
2022-10-11T15:20:43.165Z,102174.03
2022-10-11T15:23:10.126Z,102180.38
2022-10-11T15:25:38.358Z,102178.34
2022-10-11T15:28:06.068Z,102167.13
2022-10-11T15:30:40.145Z,102178.91
2022-10-11T15:33:08.489Z,102173.25
2022-10-11T15:35:34.940Z,102177.34
2022-10-11T15:38:01.363Z,102174.78
2022-10-11T15:40:33.488Z,102174.31
2022-10-11T15:43:00.409Z,102172.16
2022-10-11T15:45:27.191Z,102179.25
2022-10-11T15:47:53.691Z,102180.66
2022-10-11T15:50:37.204Z,102179.00
2022-10-11T15:53:06.866Z,102177.19
2022-10-11T15:55:35.110Z,102179.75
2022-10-11T15:58:01.862Z,102169.16
2022-10-11T16:00:29.398Z,102177.34
2022-10-11T16:02:57.517Z,102173.13
2022-10-11T16:05:26.407Z,102177.78
2022-10-11T16:07:53.537Z,102179.59
2022-10-11T16:10:20.831Z,102184.53
2022-10-11T16:12:47.358Z,102173.06
2022-10-11T16:15:13.943Z,102185.56
2022-10-11T16:17:40.390Z,102180.47
2022-10-11T16:20:07.653Z,102182.13
2022-10-11T16:22:35.190Z,102175.44
2022-10-11T16:25:02.621Z,102175.53
2022-10-11T16:27:29.156Z,102172.38
2022-10-11T16:29:55.815Z,102170.47
2022-10-11T16:32:23.151Z,102178.53
2022-10-11T16:34:50.058Z,102169.84
2022-10-11T16:37:16.748Z,102163.53
2022-10-11T16:39:43.481Z,102177.13
2022-10-11T16:42:09.945Z,102178.31
2022-10-11T16:44:38.491Z,102177.53
2022-10-11T16:47:06.264Z,102174.38
2022-10-11T16:49:33.159Z,102166.41
2022-10-11T16:52:00.669Z,102171.97
2022-10-11T16:54:27.534Z,102174.34
2022-10-11T16:56:54.268Z,102168.34
2022-10-11T16:59:20.768Z,102182.31
2022-10-11T17:01:47.332Z,102177.50
2022-10-11T17:04:14.774Z,102179.81
2022-10-11T17:06:43.713Z,102174.59
2022-10-11T17:09:10.478Z,102179.31
2022-10-11T17:11:36.985Z,102180.88
2022-10-11T17:14:05.827Z,102182.41
2022-10-11T17:16:32.413Z,102183.19
2022-10-11T17:18:58.842Z,102183.53
2022-10-11T17:21:25.282Z,102180.69
2022-10-11T17:23:51.830Z,102187.03
2022-10-11T17:26:22.102Z,102176.19
2022-10-11T17:28:49.014Z,102185.69
2022-10-11T17:31:15.561Z,102184.88
2022-10-11T17:33:42.053Z,102188.78
2022-10-11T17:36:16.377Z,102183.06
2022-10-11T17:38:42.903Z,102180.59
2022-10-11T17:41:10.311Z,102182.50
2022-10-11T17:43:36.830Z,102180.41
2022-10-11T17:46:05.958Z,102181.97
2022-10-11T17:48:36.467Z,102180.28
2022-10-11T17:51:11.561Z,102185.78
2022-10-11T17:53:38.545Z,102181.69
2022-10-11T17:56:07.750Z,102177.63
2022-10-11T17:58:34.476Z,102181.59
2022-10-11T18:01:13.626Z,102188.28
2022-10-11T18:03:40.956Z,102182.63
2022-10-11T18:06:10.008Z,102187.31
2022-10-11T18:08:40.591Z,102191.59
2022-10-11T18:11:12.557Z,102180.28
2022-10-11T18:13:42.614Z,102183.31
2022-10-11T18:16:09.935Z,102180.44
2022-10-11T18:18:36.716Z,102186.38
2022-10-11T18:21:03.704Z,102190.66
2022-10-11T18:23:30.706Z,102194.09
2022-10-11T18:25:57.271Z,102190.06
2022-10-11T18:28:23.852Z,102198.41
2022-10-11T18:30:50.537Z,102195.94
2022-10-11T18:33:17.551Z,102187.88
2022-10-11T18:35:43.981Z,102197.31
2022-10-11T18:38:10.446Z,102191.72
2022-10-11T18:40:41.323Z,102179.59
2022-10-11T18:43:11.238Z,102198.22
2022-10-11T18:45:37.635Z,102195.78
2022-10-11T18:48:04.292Z,102187.69
2022-10-11T18:50:34.853Z,102187.25
2022-10-11T18:53:01.925Z,102178.41
2022-10-11T18:55:28.469Z,102197.00
2022-10-11T18:57:54.919Z,102183.41
2022-10-11T19:00:40.227Z,102188.50
2022-10-11T19:03:07.874Z,102183.56
2022-10-11T19:05:34.382Z,102187.00
2022-10-11T19:08:00.819Z,102183.41
2022-10-11T19:10:27.319Z,102174.19
2022-10-11T19:12:53.755Z,102182.88
2022-10-11T19:15:20.170Z,102193.03
2022-10-11T19:17:46.627Z,102181.84
2022-10-11T19:20:13.118Z,102186.97
2022-10-11T19:22:39.586Z,102174.66
2022-10-11T19:25:06.594Z,102180.13
2022-10-11T19:27:33.004Z,102180.84
2022-10-11T19:30:00.341Z,102177.22
2022-10-11T19:32:26.935Z,102184.22
2022-10-11T19:34:53.387Z,102176.22
2022-10-11T19:37:19.900Z,102174.91
2022-10-11T19:39:46.377Z,102174.41
2022-10-11T19:42:12.770Z,102180.22
2022-10-11T19:44:39.818Z,102171.03
2022-10-11T19:47:06.579Z,102171.41
2022-10-11T19:49:33.088Z,102170.63
2022-10-11T19:52:01.009Z,102176.06
2022-10-11T19:54:27.941Z,102169.66
2022-10-11T19:56:54.481Z,102177.09
2022-10-11T19:59:21.157Z,102167.47
2022-10-11T20:01:52.449Z,102169.88
2022-10-11T20:04:51.247Z,102182.84
2022-10-11T20:07:07.163Z,102176.44
2022-10-11T20:09:33.736Z,102185.03
2022-10-11T20:12:00.175Z,102173.63
2022-10-11T20:14:26.699Z,102179.84
2022-10-11T20:16:53.189Z,102178.50
2022-10-11T20:19:20.055Z,102178.41
2022-10-11T20:21:47.499Z,102186.00
2022-10-11T20:24:13.996Z,102184.28
2022-10-11T20:26:40.403Z,102183.50
2022-10-11T20:29:06.871Z,102183.06
2022-10-11T20:31:35.130Z,102179.31
2022-10-11T20:34:04.178Z,102176.28
2022-10-11T20:36:31.998Z,102174.59
2022-10-11T20:38:59.315Z,102185.66
2022-10-11T20:41:28.615Z,102173.72
2022-10-11T20:43:56.909Z,102173.91
2022-10-11T20:46:26.767Z,102178.97
2022-10-11T20:49:00.413Z,102178.44
2022-10-11T20:51:28.793Z,102179.84
2022-10-11T20:53:56.328Z,102166.75
2022-10-11T20:56:23.601Z,102171.03
2022-10-11T20:58:52.529Z,102165.31
2022-10-11T21:01:21.482Z,102173.63
2022-10-11T21:03:48.166Z,102162.56
2022-10-11T21:06:14.651Z,102173.63
2022-10-11T21:08:41.580Z,102166.75
2022-10-11T21:11:08.442Z,102162.22
2022-10-11T21:13:35.681Z,102166.50
2022-10-11T21:16:07.923Z,102175.38
2022-10-11T21:18:34.421Z,102169.09
2022-10-11T21:21:07.995Z,102168.63
2022-10-11T21:23:35.109Z,102165.97
2022-10-11T21:26:06.403Z,102164.63
2022-10-11T21:28:33.674Z,102159.78
2022-10-11T21:31:05.268Z,102166.38
2022-10-11T21:33:32.804Z,102167.19
2022-10-11T21:36:00.080Z,102160.31
2022-10-11T21:38:26.516Z,102168.59
2022-10-11T21:40:52.939Z,102174.84
2022-10-11T21:43:19.367Z,102167.59
2022-10-11T21:45:46.061Z,102162.34
2022-10-11T21:48:12.496Z,102161.00
2022-10-11T21:50:38.901Z,102157.69
2022-10-11T21:53:05.321Z,102154.47
2022-10-11T21:55:31.762Z,102162.91
2022-10-11T21:57:58.210Z,102159.53
2022-10-11T22:00:24.601Z,102168.38
2022-10-11T22:02:52.787Z,102153.69
2022-10-11T22:05:19.276Z,102162.78
2022-10-11T22:07:46.819Z,102163.56
2022-10-11T22:10:13.265Z,102161.97
2022-10-11T22:12:39.684Z,102156.00
2022-10-11T22:15:06.822Z,102170.06
2022-10-11T22:17:33.267Z,102164.53
2022-10-11T22:20:00.160Z,102171.28
2022-10-11T22:22:26.612Z,102166.94
2022-10-11T22:24:53.086Z,102151.91
2022-10-11T22:27:19.530Z,102165.56
2022-10-11T22:29:45.942Z,102159.84
2022-10-11T22:32:12.378Z,102160.19
2022-10-11T22:34:38.815Z,102147.00
2022-10-11T22:37:05.238Z,102161.44
2022-10-11T22:39:31.662Z,102159.41
2022-10-11T22:41:58.062Z,102160.91
2022-10-11T22:44:24.531Z,102157.69
2022-10-11T22:46:50.974Z,102155.63
2022-10-11T22:49:17.399Z,102146.44
2022-10-11T22:51:44.483Z,102148.66
2022-10-11T22:54:11.249Z,102145.78
2022-10-11T22:56:37.678Z,102157.63
2022-10-11T22:59:04.476Z,102152.47
2022-10-11T23:01:30.892Z,102150.38
2022-10-11T23:03:57.460Z,102150.03
2022-10-11T23:06:23.921Z,102147.97
2022-10-11T23:08:50.367Z,102147.50
2022-10-11T23:11:16.890Z,102144.19
2022-10-11T23:13:43.375Z,102133.63
2022-10-11T23:16:11.138Z,102143.28
2022-10-11T23:18:38.260Z,102138.03
2022-10-11T23:21:06.036Z,102142.38
2022-10-11T23:23:33.206Z,102145.47
2022-10-11T23:26:04.737Z,102145.31
2022-10-11T23:28:31.315Z,102149.59
2022-10-11T23:30:57.814Z,102155.00
2022-10-11T23:33:24.535Z,102150.63
2022-10-11T23:35:51.016Z,102155.78
2022-10-11T23:38:17.478Z,102149.94
2022-10-11T23:40:43.907Z,102144.88
2022-10-11T23:43:10.358Z,102154.41
2022-10-11T23:45:36.755Z,102143.16
2022-10-11T23:48:03.603Z,102155.00
2022-10-11T23:50:30.048Z,102145.72
2022-10-11T23:52:57.077Z,102139.38
2022-10-11T23:55:23.517Z,102155.03
2022-10-11T23:57:49.928Z,102147.88
